Phoenix, Arizona
Traffic Map
Current Weather Conditions
Phoenix, Arizona
Few Clouds
Few Clouds
16°
Feels Like: 16°
Wind Chill: 16° Ceiling: Unl
Heat Index: 16° Visibility: 10mi
Dew Point: Wind: 12mph
Humidity: 42% Direction: 310° (NW)
Pressure: 29.78in Gusts: 0mph
Raw Report DataKPHX 281151Z 31010KT 10SM FEW250 16/03 A2978 RMK AO2 SLP072 60000 T01560028 10211 20150 53001
Traffic Incident Summary
Active as of:
Severity:
Category:
InformationThere was an issue retrieving the traffic information for this location. Please try a different location or try again shortly.
Advertisements
Track Severe Weather on mobile